Time;durP1;ratioP1;P1;durP2;ratioP2;P2;SDS_P1;SDS_P2;PMS_P1;PMS_P2;Temp;Humidity;BMP_temperature;BMP_pressure;BME280_temperature;BME280_humidity;BME280_pressure;Samples;Min_cycle;Max_cycle;Signal;HPM_P1;HPM_P2
2021/09/29 00:00:40;;;;;;;;;;;;;;;;;;5094575;28;19931;-74
2021/09/29 00:03:07;;;;;;;;;;;;;;;;;;5092773;28;19924;-73
2021/09/29 00:05:34;;;;;;;;;;;;;;;;;;5093739;28;19935;-73
2021/09/29 00:08:01;;;;;;;;;;;;;;;;;;5099785;28;19924;-72
2021/09/29 00:10:28;;;;;;;;;;;;;;;;;;5093755;28;19963;-74
2021/09/29 00:12:54;;;;;;;;;;;;;;;;;;5092319;28;19928;-72
2021/09/29 00:15:21;;;;;;;;;;;;;;;;;;5097343;28;19925;-73
2021/09/29 00:17:48;;;;;;;;;;;;;;;;;;5093706;28;19975;-73
2021/09/29 00:20:15;;;;;;;;;;;;;;;;;;5089967;28;20014;-74
2021/09/29 00:22:42;;;;;;;;;;;;;;;;;;5087014;28;19928;-73
2021/09/29 00:25:09;;;;;;;;;;;;;;;;;;5093315;28;20400;-72
2021/09/29 00:27:36;;;;;;;;;;;;;;;;;;5098418;28;19924;-73
2021/09/29 00:30:05;;;;;;;;;;;;;;;;;;5096311;28;19924;-72
2021/09/29 00:32:33;;;;;;;;;;;;;;;;;;5091679;28;19975;-74
2021/09/29 00:35:00;;;;;;;;;;;;;;;;;;5088413;28;19995;-72
2021/09/29 00:37:27;;;;;;;;;;;;;;;;;;5091086;28;19924;-73
2021/09/29 00:39:54;;;;;;;;;;;;;;;;;;5098540;28;19924;-72
2021/09/29 00:42:21;;;;;;;;;;;;;;;;;;5096252;28;19931;-72
2021/09/29 00:44:50;;;;;;;;;;;;;;;;;;5093609;28;19928;-72
2021/09/29 00:47:17;;;;;;;;;;;;;;;;;;5097523;28;19960;-72
2021/09/29 00:49:44;;;;;;;;;;;;;;;;;;5101825;28;20005;-72
2021/09/29 00:52:11;;;;;;;;;;;;;;;;;;5091510;28;19953;-73
2021/09/29 00:54:38;;;;;;;;;;;;;;;;;;5094370;28;20300;-73
2021/09/29 00:57:05;;;;;;;;;;;;;;;;;;5098078;28;19924;-73
2021/09/29 00:59:32;;;;;;;;;;;;;;;;;;5096328;28;19930;-73
2021/09/29 01:01:59;;;;;;;;;;;;;;;;;;5102768;28;19953;-73
2021/09/29 01:04:25;;;;;;;;;;;;;;;;;;5096806;28;19967;-73
2021/09/29 01:06:52;;;;;;;;;;;;;;;;;;5095575;28;19928;-73
2021/09/29 01:09:19;;;;;;;;;;;;;;;;;;5093609;28;19971;-74
2021/09/29 01:11:46;;;;;;;;;;;;;;;;;;5091784;28;19939;-73
2021/09/29 01:14:13;;;;;;;;;;;;;;;;;;5090738;28;19932;-73
2021/09/29 01:16:40;;;;;;;;;;;;;;;;;;5096240;28;20277;-73
2021/09/29 01:19:07;;;;;;;;;;;;;;;;;;5089527;28;19930;-72
2021/09/29 01:21:34;;;;;;;;;;;;;;;;;;5091643;28;19928;-74
2021/09/29 01:24:01;;;;;;;;;;;;;;;;;;5089253;28;19960;-73
2021/09/29 01:26:28;;;;;;;;;;;;;;;;;;5085984;28;19931;-74
2021/09/29 01:28:55;;;;;;;;;;;;;;;;;;5090568;28;19925;-73
2021/09/29 01:31:22;;;;;;;;;;;;;;;;;;5092660;28;19934;-73
2021/09/29 01:33:49;;;;;;;;;;;;;;;;;;5094100;28;19934;-73
2021/09/29 01:36:16;;;;;;;;;;;;;;;;;;5095542;28;19924;-75
2021/09/29 01:38:43;;;;;;;;;;;;;;;;;;5099491;28;19924;-73
2021/09/29 01:41:10;;;;;;;;;;;;;;;;;;5090972;28;20622;-73
2021/09/29 01:43:37;;;;;;;;;;;;;;;;;;5092970;28;20454;-73
2021/09/29 01:46:04;;;;;;;;;;;;;;;;;;5092370;28;19935;-73
2021/09/29 01:48:31;;;;;;;;;;;;;;;;;;5090350;28;19939;-74
2021/09/29 01:50:58;;;;;;;;;;;;;;;;;;5095501;28;20280;-73
2021/09/29 01:53:25;;;;;;;;;;;;;;;;;;5089597;28;19928;-73
2021/09/29 01:55:52;;;;;;;;;;;;;;;;;;5091845;28;19924;-73
2021/09/29 01:58:19;;;;;;;;;;;;;;;;;;5095871;28;19975;-73
2021/09/29 02:00:46;;;;;;;;;;;;;;;;;;5098795;28;19924;-74
2021/09/29 02:03:12;;;;;;;;;;;;;;;;;;5095533;28;20281;-73
2021/09/29 02:05:39;;;;;;;;;;;;;;;;;;5092240;28;19931;-73
2021/09/29 02:08:06;;;;;;;;;;;;;;;;;;5092830;28;19925;-72
2021/09/29 02:10:33;;;;;;;;;;;;;;;;;;5097629;28;19935;-73
2021/09/29 02:13:00;;;;;;;;;;;;;;;;;;5091942;28;19924;-72
2021/09/29 02:15:27;;;;;;;;;;;;;;;;;;5093096;28;19931;-72
2021/09/29 02:17:54;;;;;;;;;;;;;;;;;;5093663;28;19928;-74
2021/09/29 02:20:21;;;;;;;;;;;;;;;;;;5090284;28;19927;-73
2021/09/29 02:22:48;;;;;;;;;;;;;;;;;;5090734;28;19932;-73
2021/09/29 02:25:15;;;;;;;;;;;;;;;;;;5092850;28;20007;-73
2021/09/29 02:27:42;;;;;;;;;;;;;;;;;;5093400;28;19939;-74
2021/09/29 02:30:09;;;;;;;;;;;;;;;;;;5100084;28;19946;-73
2021/09/29 02:32:36;;;;;;;;;;;;;;;;;;5093924;28;20288;-74
2021/09/29 02:35:03;;;;;;;;;;;;;;;;;;5091181;28;19924;-73
2021/09/29 02:37:30;;;;;;;;;;;;;;;;;;5092815;28;19940;-73
2021/09/29 02:39:57;;;;;;;;;;;;;;;;;;5089754;28;19950;-74
2021/09/29 02:42:23;;;;;;;;;;;;;;;;;;5095836;28;19927;-73
2021/09/29 02:44:50;;;;;;;;;;;;;;;;;;5092163;28;19947;-73
2021/09/29 02:47:17;;;;;;;;;;;;;;;;;;5090049;28;20384;-73
2021/09/29 02:49:44;;;;;;;;;;;;;;;;;;5096005;28;19928;-73
2021/09/29 02:52:11;;;;;;;;;;;;;;;;;;5095154;28;20344;-72
2021/09/29 02:54:38;;;;;;;;;;;;;;;;;;5091719;28;19931;-73
2021/09/29 02:57:05;;;;;;;;;;;;;;;;;;5094730;28;19932;-73
2021/09/29 02:59:32;;;;;;;;;;;;;;;;;;5097269;28;20280;-73
2021/09/29 03:01:59;;;;;;;;;;;;;;;;;;5099866;28;19931;-73
2021/09/29 03:04:26;;;;;;;;;;;;;;;;;;5096503;28;20027;-72
2021/09/29 03:06:53;;;;;;;;;;;;;;;;;;5095696;28;19925;-73
2021/09/29 03:09:20;;;;;;;;;;;;;;;;;;5096796;28;19923;-72
2021/09/29 03:11:47;;;;;;;;;;;;;;;;;;5095466;28;19931;-73
2021/09/29 03:14:13;;;;;;;;;;;;;;;;;;5090909;28;19931;-73
2021/09/29 03:16:40;;;;;;;;;;;;;;;;;;5094770;28;19931;-74
2021/09/29 03:19:07;;;;;;;;;;;;;;;;;;5095391;28;19942;-73
2021/09/29 03:21:34;;;;;;;;;;;;;;;;;;5103234;28;19932;-73
2021/09/29 03:24:01;;;;;;;;;;;;;;;;;;5091498;28;19962;-73
2021/09/29 03:26:28;;;;;;;;;;;;;;;;;;5100278;28;20400;-73
2021/09/29 03:28:55;;;;;;;;;;;;;;;;;;5100226;28;19930;-73
2021/09/29 03:31:22;;;;;;;;;;;;;;;;;;5094938;28;20018;-72
2021/09/29 03:33:49;;;;;;;;;;;;;;;;;;5094486;28;19952;-73
2021/09/29 03:36:16;;;;;;;;;;;;;;;;;;5098273;28;19930;-73
2021/09/29 03:38:43;;;;;;;;;;;;;;;;;;5097799;28;19963;-73
2021/09/29 03:41:10;;;;;;;;;;;;;;;;;;5088676;28;19932;-73
2021/09/29 03:43:37;;;;;;;;;;;;;;;;;;5116800;22;20006;-64
2021/09/29 03:46:04;;;;;;;;;;;;;;;;;;5091852;28;20315;-64
2021/09/29 03:48:30;;;;;;;;;;;;;;;;;;5091203;28;19924;-63
2021/09/29 03:50:57;;;;;;;;;;;;;;;;;;5089462;28;20019;-64
2021/09/29 03:53:24;;;;;;;;;;;;;;;;;;5090666;28;19928;-65
2021/09/29 03:55:51;;;;;;;;;;;;;;;;;;5090108;28;20059;-64
2021/09/29 03:58:19;;;;;;;;;;;;;;;;;;5090342;28;20375;-64
2021/09/29 04:00:46;;;;;;;;;;;;;;;;;;5089863;28;19928;-63
2021/09/29 04:03:13;;;;;;;;;;;;;;;;;;5089739;28;19977;-63
2021/09/29 04:05:40;;;;;;;;;;;;;;;;;;5090727;28;19930;-65
2021/09/29 04:08:07;;;;;;;;;;;;;;;;;;5090216;28;19931;-65
2021/09/29 04:10:34;;;;;;;;;;;;;;;;;;5091778;28;19932;-64
2021/09/29 04:13:01;;;;;;;;;;;;;;;;;;5091546;28;19928;-65
2021/09/29 04:15:28;;;;;;;;;;;;;;;;;;5089725;28;19924;-63
2021/09/29 04:17:54;;;;;;;;;;;;;;;;;;5091124;28;20300;-65
2021/09/29 04:20:21;;;;;;;;;;;;;;;;;;5092407;28;19928;-65
2021/09/29 04:22:48;;;;;;;;;;;;;;;;;;5092839;28;19932;-65
2021/09/29 04:25:15;;;;;;;;;;;;;;;;;;5091210;28;19931;-66
2021/09/29 04:27:42;;;;;;;;;;;;;;;;;;5092826;28;19925;-65
2021/09/29 04:30:09;;;;;;;;;;;;;;;;;;5093170;28;20514;-65
2021/09/29 04:32:36;;;;;;;;;;;;;;;;;;5087605;28;19925;-65
2021/09/29 04:35:03;;;;;;;;;;;;;;;;;;5085930;28;19924;-64
2021/09/29 04:37:30;;;;;;;;;;;;;;;;;;5090413;28;19935;-65
2021/09/29 04:39:57;;;;;;;;;;;;;;;;;;5092759;28;20307;-65
2021/09/29 04:42:24;;;;;;;;;;;;;;;;;;5091791;28;19924;-65
2021/09/29 04:44:50;;;;;;;;;;;;;;;;;;5091112;28;19924;-65
2021/09/29 04:47:17;;;;;;;;;;;;;;;;;;5087064;28;20304;-65
2021/09/29 04:49:44;;;;;;;;;;;;;;;;;;5090849;28;20325;-64
2021/09/29 04:52:11;;;;;;;;;;;;;;;;;;5090478;28;19931;-65
2021/09/29 04:54:41;;;;;;;;;;;;;;;;;;5087785;28;20379;-65
2021/09/29 04:57:08;;;;;;;;;;;;;;;;;;5089736;28;19946;-66
2021/09/29 04:59:34;;;;;;;;;;;;;;;;;;5091365;28;19970;-65
2021/09/29 05:02:01;;;;;;;;;;;;;;;;;;5091392;28;20375;-65
2021/09/29 05:04:28;;;;;;;;;;;;;;;;;;5090970;28;19967;-65
2021/09/29 05:06:55;;;;;;;;;;;;;;;;;;5082093;28;19928;-65
2021/09/29 05:09:22;;;;;;;;;;;;;;;;;;5092054;28;20323;-65
2021/09/29 05:11:49;;;;;;;;;;;;;;;;;;5092300;28;19924;-65
2021/09/29 05:14:16;;;;;;;;;;;;;;;;;;5089540;28;19928;-66
2021/09/29 05:16:44;;;;;;;;;;;;;;;;;;5083089;28;19932;-65
2021/09/29 05:19:11;;;;;;;;;;;;;;;;;;5090808;28;19939;-64
2021/09/29 05:21:38;;;;;;;;;;;;;;;;;;5083495;28;20370;-64
2021/09/29 05:24:05;;;;;;;;;;;;;;;;;;5082334;28;19928;-64
2021/09/29 05:26:32;;;;;;;;;;;;;;;;;;5087028;28;20295;-65
2021/09/29 05:28:59;;;;;;;;;;;;;;;;;;5089133;28;19931;-64
2021/09/29 05:31:26;;;;;;;;;;;;;;;;;;5092105;28;20275;-65
2021/09/29 05:33:53;;;;;;;;;;;;;;;;;;5088277;28;19924;-64
2021/09/29 05:36:20;;;;;;;;;;;;;;;;;;5091248;28;19932;-65
2021/09/29 05:38:47;;;;;;;;;;;;;;;;;;5089711;28;19936;-66
2021/09/29 05:41:14;;;;;;;;;;;;;;;;;;5090486;28;19930;-65
2021/09/29 05:43:41;;;;;;;;;;;;;;;;;;5084125;28;19924;-66
2021/09/29 05:46:08;;;;;;;;;;;;;;;;;;5088760;28;20267;-65
2021/09/29 05:48:35;;;;;;;;;;;;;;;;;;5089646;28;19928;-65
2021/09/29 05:51:02;;;;;;;;;;;;;;;;;;5090502;28;19951;-66
2021/09/29 05:53:29;;;;;;;;;;;;;;;;;;5090020;28;20043;-65
2021/09/29 05:55:55;;;;;;;;;;;;;;;;;;5090490;28;19931;-66
2021/09/29 05:58:23;;;;;;;;;;;;;;;;;;5084258;28;19931;-65
2021/09/29 06:00:50;;;;;;;;;;;;;;;;;;5089492;28;19924;-66
2021/09/29 06:03:19;;;;;;;;;;;;;;;;;;5089336;28;19960;-65
2021/09/29 06:05:46;;;;;;;;;;;;;;;;;;5089051;28;20445;-66
2021/09/29 06:08:13;;;;;;;;;;;;;;;;;;5089259;28;19928;-66
2021/09/29 06:10:40;;;;;;;;;;;;;;;;;;5088449;28;19924;-65
2021/09/29 06:13:07;;;;;;;;;;;;;;;;;;5087279;28;19931;-66
2021/09/29 06:15:34;;;;;;;;;;;;;;;;;;5081967;28;19930;-66
2021/09/29 06:18:02;;;;;;;;;;;;;;;;;;5088456;28;19935;-66
2021/09/29 06:20:31;;;;;;;;;;;;;;;;;;5090301;28;19985;-65
2021/09/29 06:22:58;;;;;;;;;;;;;;;;;;5080461;28;19928;-65
2021/09/29 06:25:25;;;;;;;;;;;;;;;;;;5081171;28;19928;-66
2021/09/29 06:27:52;;;;;;;;;;;;;;;;;;5089063;28;20292;-66
2021/09/29 06:30:19;;;;;;;;;;;;;;;;;;5087084;28;20043;-65
2021/09/29 06:32:46;;;;;;;;;;;;;;;;;;5089992;28;19931;-67
2021/09/29 06:35:13;;;;;;;;;;;;;;;;;;5084372;28;19924;-65
2021/09/29 06:37:42;;;;;;;;;;;;;;;;;;5089332;28;20195;-66
2021/09/29 06:40:09;;;;;;;;;;;;;;;;;;5084401;28;20320;-65
2021/09/29 06:42:36;;;;;;;;;;;;;;;;;;5083031;28;19932;-65
2021/09/29 06:45:03;;;;;;;;;;;;;;;;;;5087231;28;19944;-66
2021/09/29 06:47:30;;;;;;;;;;;;;;;;;;5085696;28;19935;-65
2021/09/29 06:49:57;;;;;;;;;;;;;;;;;;5088305;28;19924;-64
2021/09/29 06:52:24;;;;;;;;;;;;;;;;;;5090400;28;20382;-64
2021/09/29 06:54:51;;;;;;;;;;;;;;;;;;5090227;28;19924;-64
2021/09/29 06:57:18;;;;;;;;;;;;;;;;;;5089220;28;19934;-64
2021/09/29 06:59:45;;;;;;;;;;;;;;;;;;5088699;28;19937;-64
2021/09/29 07:02:12;;;;;;;;;;;;;;;;;;5085288;28;19932;-64
2021/09/29 07:04:39;;;;;;;;;;;;;;;;;;5090848;28;20440;-65
2021/09/29 07:07:06;;;;;;;;;;;;;;;;;;5083619;28;19939;-64
2021/09/29 07:09:33;;;;;;;;;;;;;;;;;;5086847;28;19931;-64
2021/09/29 07:12:00;;;;;;;;;;;;;;;;;;5086868;28;19924;-64
2021/09/29 07:14:27;;;;;;;;;;;;;;;;;;5085979;28;20507;-65
2021/09/29 07:16:54;;;;;;;;;;;;;;;;;;5085053;28;20448;-65
2021/09/29 07:19:21;;;;;;;;;;;;;;;;;;5086855;28;19924;-65
2021/09/29 07:21:48;;;;;;;;;;;;;;;;;;5086923;28;20297;-64
2021/09/29 07:24:15;;;;;;;;;;;;;;;;;;5087129;28;20303;-66
2021/09/29 07:26:42;;;;;;;;;;;;;;;;;;5086991;28;19958;-66
2021/09/29 07:29:10;;;;;;;;;;;;;;;;;;5088626;28;19979;-65
2021/09/29 07:31:37;;;;;;;;;;;;;;;;;;5085662;28;20398;-64
2021/09/29 07:34:04;;;;;;;;;;;;;;;;;;5084037;28;19939;-66
2021/09/29 07:36:31;;;;;;;;;;;;;;;;;;5086871;28;19924;-65
2021/09/29 07:38:58;;;;;;;;;;;;;;;;;;5089907;28;19935;-62
2021/09/29 07:41:25;;;;;;;;;;;;;;;;;;5089412;28;19939;-65
2021/09/29 07:43:52;;;;;;;;;;;;;;;;;;5086996;28;20001;-66
2021/09/29 07:46:19;;;;;;;;;;;;;;;;;;5091071;28;19967;-66
2021/09/29 07:48:46;;;;;;;;;;;;;;;;;;5090024;28;19928;-66
2021/09/29 07:51:14;;;;;;;;;;;;;;;;;;5088739;28;19924;-64
2021/09/29 07:53:42;;;;;;;;;;;;;;;;;;5089199;28;20440;-64
2021/09/29 07:56:09;;;;;;;;;;;;;;;;;;5090946;28;19946;-65
2021/09/29 07:58:36;;;;;;;;;;;;;;;;;;5091984;28;19935;-65
2021/09/29 08:01:03;;;;;;;;;;;;;;;;;;5086249;28;19930;-65
2021/09/29 08:03:30;;;;;;;;;;;;;;;;;;5090360;28;19923;-64
2021/09/29 08:06:01;;;;;;;;;;;;;;;;;;5089300;28;20129;-64
2021/09/29 08:08:28;;;;;;;;;;;;;;;;;;5089945;28;20315;-65
2021/09/29 08:10:55;;;;;;;;;;;;;;;;;;5090230;28;20022;-65
2021/09/29 08:13:22;;;;;;;;;;;;;;;;;;5090711;28;19932;-64
2021/09/29 08:15:49;;;;;;;;;;;;;;;;;;5087803;28;20372;-64
2021/09/29 08:18:16;;;;;;;;;;;;;;;;;;5089556;28;20023;-65
2021/09/29 08:20:43;;;;;;;;;;;;;;;;;;5090208;28;19931;-66
2021/09/29 08:23:13;;;;;;;;;;;;;;;;;;5088136;28;19924;-65
2021/09/29 08:26:08;;;;;;;;;;;;;;;;;;5089756;28;19924;-64
2021/09/29 08:28:42;;;;;;;;;;;;;;;;;;5087007;28;19923;-64
2021/09/29 08:31:14;;;;;;;;;;;;;;;;;;5089046;28;19946;-65
2021/09/29 08:36:29;;;;;;;;;;;;;;;;;;5076811;28;19924;-64
2021/09/29 08:38:58;;;;;;;;;;;;;;;;;;5089663;28;19924;-64
2021/09/29 08:41:43;;;;;;;;;;;;;;;;;;5089943;28;19928;-64
2021/09/29 08:44:14;;;;;;;;;;;;;;;;;;5091783;28;20673;-64
2021/09/29 08:46:56;;;;;;;;;;;;;;;;;;5088508;28;19924;-65
2021/09/29 08:49:29;;;;;;;;;;;;;;;;;;5087543;28;19924;-65
2021/09/29 08:57:52;;;;;;;;;;;;;;;;;;5071780;28;19928;-65
2021/09/29 09:16:48;;;;;;;;;;;;;;;;;;5087935;28;19970;-66
2021/09/29 09:19:15;;;;;;;;;;;;;;;;;;5082942;28;20361;-66
2021/09/29 09:21:43;;;;;;;;;;;;;;;;;;5092931;28;19930;-65
2021/09/29 09:24:10;;;;;;;;;;;;;;;;;;5087157;28;20304;-66
2021/09/29 09:26:37;;;;;;;;;;;;;;;;;;5089925;28;19985;-66
2021/09/29 09:29:04;;;;;;;;;;;;;;;;;;5083258;28;19946;-66
2021/09/29 09:31:31;;;;;;;;;;;;;;;;;;5092053;28;19925;-65
2021/09/29 09:33:58;;;;;;;;;;;;;;;;;;5085987;28;19932;-66
2021/09/29 09:36:25;;;;;;;;;;;;;;;;;;5088111;28;19936;-66
2021/09/29 09:38:52;;;;;;;;;;;;;;;;;;5084389;28;20405;-66
2021/09/29 09:41:19;;;;;;;;;;;;;;;;;;5090239;28;19928;-65
2021/09/29 09:43:46;;;;;;;;;;;;;;;;;;5092105;28;19928;-65
2021/09/29 09:46:13;;;;;;;;;;;;;;;;;;5090215;28;19967;-65
2021/09/29 09:48:41;;;;;;;;;;;;;;;;;;5086380;28;20365;-65
2021/09/29 09:51:10;;;;;;;;;;;;;;;;;;5090189;28;19928;-65
2021/09/29 09:53:37;;;;;;;;;;;;;;;;;;5090625;28;20379;-66
2021/09/29 09:56:04;;;;;;;;;;;;;;;;;;5090470;28;20456;-65
2021/09/29 09:58:31;;;;;;;;;;;;;;;;;;5086361;28;20030;-65
2021/09/29 10:00:58;;;;;;;;;;;;;;;;;;5089689;28;19924;-65
2021/09/29 10:03:25;;;;;;;;;;;;;;;;;;5089277;28;19924;-66
2021/09/29 10:05:53;;;;;;;;;;;;;;;;;;5088225;28;20400;-66
2021/09/29 10:08:25;;;;;;;;;;;;;;;;;;5086160;28;19924;-66
2021/09/29 10:10:59;;;;;;;;;;;;;;;;;;5090175;28;19928;-66
2021/09/29 10:13:56;;;;;;;;;;;;;;;;;;5088264;28;20396;-65
2021/09/29 10:27:23;;;;;;;;;;;;;;;;;;5086104;28;19927;-65
2021/09/29 10:29:51;;;;;;;;;;;;;;;;;;5081823;28;19924;-65
2021/09/29 10:32:21;;;;;;;;;;;;;;;;;;5084332;28;19924;-65
2021/09/29 10:34:51;;;;;;;;;;;;;;;;;;5085582;28;20354;-65
2021/09/29 10:37:39;;;;;;;;;;;;;;;;;;5081835;28;19994;-65
2021/09/29 10:40:30;;;;;;;;;;;;;;;;;;5086459;28;19956;-65
2021/09/29 10:43:01;;;;;;;;;;;;;;;;;;5083410;28;19924;-65
2021/09/29 10:48:39;;;;;;;;;;;;;;;;;;5031720;28;19929;-65
2021/09/29 11:05:26;;;;;;;;;;;;;;;;;;5083897;28;19919;-65
2021/09/29 11:29:51;;;;;;;;;;;;;;;;;;5089880;28;19919;-66
2021/09/29 11:32:32;;;;;;;;;;;;;;;;;;5089650;28;19923;-65
2021/09/29 11:35:03;;;;;;;;;;;;;;;;;;5091439;28;19967;-66
2021/09/29 12:08:06;;;;;;;;;;;;;;;;;;5088950;28;20024;-65
2021/09/29 12:10:34;;;;;;;;;;;;;;;;;;5089031;28;20392;-65
2021/09/29 12:13:05;;;;;;;;;;;;;;;;;;5086950;28;19928;-65
2021/09/29 12:15:32;;;;;;;;;;;;;;;;;;5089319;28;20024;-65
2021/09/29 12:17:59;;;;;;;;;;;;;;;;;;5091299;28;19931;-65
2021/09/29 12:20:27;;;;;;;;;;;;;;;;;;5091321;28;19938;-65
2021/09/29 12:22:55;;;;;;;;;;;;;;;;;;5087972;28;20408;-65
2021/09/29 12:25:22;;;;;;;;;;;;;;;;;;5087162;28;19924;-66
2021/09/29 12:27:55;;;;;;;;;;;;;;;;;;5090658;28;19979;-64
2021/09/29 12:30:23;;;;;;;;;;;;;;;;;;5085313;28;19924;-63
2021/09/29 12:32:55;;;;;;;;;;;;;;;;;;5090325;28;19975;-63
2021/09/29 12:35:33;;;;;;;;;;;;;;;;;;5089974;28;19932;-63
2021/09/29 12:38:00;;;;;;;;;;;;;;;;;;5088131;28;19924;-63
2021/09/29 12:40:27;;;;;;;;;;;;;;;;;;5087204;28;20283;-63
2021/09/29 12:42:54;;;;;;;;;;;;;;;;;;5089903;28;19928;-63
2021/09/29 12:45:21;;;;;;;;;;;;;;;;;;5089280;28;19924;-65
2021/09/29 12:47:48;;;;;;;;;;;;;;;;;;5088964;28;19932;-65
2021/09/29 12:50:17;;;;;;;;;;;;;;;;;;5089216;28;20027;-64
2021/09/29 12:52:51;;;;;;;;;;;;;;;;;;5087136;28;20466;-65
2021/09/29 12:55:22;;;;;;;;;;;;;;;;;;5088087;28;19928;-65
2021/09/29 12:57:49;;;;;;;;;;;;;;;;;;5088254;28;20002;-65
2021/09/29 13:00:17;;;;;;;;;;;;;;;;;;5084048;28;19932;-65
2021/09/29 13:02:44;;;;;;;;;;;;;;;;;;5087004;28;19925;-65
2021/09/29 13:05:11;;;;;;;;;;;;;;;;;;5088313;28;19931;-65
2021/09/29 13:07:38;;;;;;;;;;;;;;;;;;5086238;28;19928;-65
2021/09/29 13:10:05;;;;;;;;;;;;;;;;;;5087424;28;19935;-65
2021/09/29 13:12:32;;;;;;;;;;;;;;;;;;5084198;28;19935;-65
2021/09/29 13:14:59;;;;;;;;;;;;;;;;;;5089995;28;20314;-65
2021/09/29 13:17:28;;;;;;;;;;;;;;;;;;5088464;28;19931;-65
2021/09/29 13:19:58;;;;;;;;;;;;;;;;;;5089839;28;19963;-64
2021/09/29 13:22:26;;;;;;;;;;;;;;;;;;5090122;28;20245;-65
2021/09/29 13:38:43;;;;;;;;;;;;;;;;;;5087464;28;20292;-65
2021/09/29 13:41:10;;;;;;;;;;;;;;;;;;5086012;28;19928;-65
2021/09/29 13:43:37;;;;;;;;;;;;;;;;;;5084170;28;19978;-65
2021/09/29 13:46:04;;;;;;;;;;;;;;;;;;5085776;28;19924;-65
2021/09/29 13:48:31;;;;;;;;;;;;;;;;;;5088016;28;20383;-64
2021/09/29 13:51:00;;;;;;;;;;;;;;;;;;5088044;28;19924;-66
2021/09/29 13:53:28;;;;;;;;;;;;;;;;;;5086416;28;20028;-66
2021/09/29 13:55:56;;;;;;;;;;;;;;;;;;5086438;28;19986;-67
2021/09/29 13:58:41;;;;;;;;;;;;;;;;;;5087044;28;19924;-68
2021/09/29 14:01:31;;;;;;;;;;;;;;;;;;5088261;28;19932;-64
2021/09/29 14:28:55;;;;;;;;;;;;;;;;;;5084923;28;19920;-66
2021/09/29 14:31:30;;;;;;;;;;;;;;;;;;5086898;28;20165;-68
2021/09/29 14:33:57;;;;;;;;;;;;;;;;;;5085738;28;19983;-68
2021/09/29 14:36:24;;;;;;;;;;;;;;;;;;5087958;28;19964;-65
2021/09/29 14:38:51;;;;;;;;;;;;;;;;;;5089477;28;19928;-66
2021/09/29 14:41:18;;;;;;;;;;;;;;;;;;5087903;28;19929;-66
2021/09/29 14:43:45;;;;;;;;;;;;;;;;;;5087020;28;19928;-65
2021/09/29 14:46:12;;;;;;;;;;;;;;;;;;5086595;28;20802;-66
2021/09/29 14:48:39;;;;;;;;;;;;;;;;;;5086086;28;19924;-66
2021/09/29 14:51:08;;;;;;;;;;;;;;;;;;5085133;28;19931;-67
2021/09/29 14:53:35;;;;;;;;;;;;;;;;;;5085771;28;20375;-66
2021/09/29 14:56:02;;;;;;;;;;;;;;;;;;5083713;28;19934;-66
2021/09/29 14:58:29;;;;;;;;;;;;;;;;;;5086656;28;20299;-66
2021/09/29 15:00:56;;;;;;;;;;;;;;;;;;5086603;28;19924;-65
2021/09/29 15:03:23;;;;;;;;;;;;;;;;;;5087758;28;20280;-66
2021/09/29 15:05:50;;;;;;;;;;;;;;;;;;5086490;28;19928;-65
2021/09/29 15:08:17;;;;;;;;;;;;;;;;;;5086389;28;19936;-66
2021/09/29 15:10:44;;;;;;;;;;;;;;;;;;5085480;28;19936;-66
2021/09/29 15:13:13;;;;;;;;;;;;;;;;;;5087656;28;20023;-66
2021/09/29 15:15:47;;;;;;;;;;;;;;;;;;5086061;28;19931;-66
2021/09/29 15:18:18;;;;;;;;;;;;;;;;;;5085807;28;19931;-66
2021/09/29 15:21:10;;;;;;;;;;;;;;;;;;5085894;28;19931;-66
2021/09/29 15:24:04;;;;;;;;;;;;;;;;;;5083532;28;19959;-67
2021/09/29 15:26:50;;;;;;;;;;;;;;;;;;5083854;28;20477;-66
2021/09/29 15:32:23;;;;;;;;;;;;;;;;;;5068272;28;19927;-66
2021/09/29 15:48:36;;;;;;;;;;;;;;;;;;5090898;28;19923;-72
2021/09/29 15:51:07;;;;;;;;;;;;;;;;;;5090535;28;19924;-73
2021/09/29 15:53:53;;;;;;;;;;;;;;;;;;5083338;28;20304;-74
2021/09/29 15:56:23;;;;;;;;;;;;;;;;;;5089776;28;19924;-72
2021/09/29 15:59:13;;;;;;;;;;;;;;;;;;5088077;28;20002;-73
2021/09/29 16:01:41;;;;;;;;;;;;;;;;;;5094681;28;19969;-73
2021/09/29 16:04:21;;;;;;;;;;;;;;;;;;5098830;28;19924;-71
2021/09/29 16:06:55;;;;;;;;;;;;;;;;;;5095420;28;19975;-73
2021/09/29 16:12:36;;;;;;;;;;;;;;;;;;5091512;28;20162;-73
2021/09/29 16:18:18;;;;;;;;;;;;;;;;;;5089757;28;20346;-72
2021/09/29 16:31:47;;;;;;;;;;;;;;;;;;5091480;28;20429;-73
2021/09/29 16:34:19;;;;;;;;;;;;;;;;;;5093816;28;19989;-73
2021/09/29 16:36:46;;;;;;;;;;;;;;;;;;5091269;28;20389;-74
2021/09/29 16:39:13;;;;;;;;;;;;;;;;;;5094000;28;19950;-73
2021/09/29 16:41:40;;;;;;;;;;;;;;;;;;5090220;28;20344;-74
2021/09/29 16:44:07;;;;;;;;;;;;;;;;;;5088099;28;19932;-73
2021/09/29 16:46:36;;;;;;;;;;;;;;;;;;5086386;28;19928;-73
2021/09/29 16:49:03;;;;;;;;;;;;;;;;;;5093231;28;20139;-73
2021/09/29 16:51:34;;;;;;;;;;;;;;;;;;5099598;28;19924;-73
2021/09/29 16:54:05;;;;;;;;;;;;;;;;;;5102173;28;20011;-73
2021/09/29 16:56:33;;;;;;;;;;;;;;;;;;5091424;28;19935;-71
2021/09/29 16:59:03;;;;;;;;;;;;;;;;;;5090364;28;19978;-72
2021/09/29 17:01:31;;;;;;;;;;;;;;;;;;5091126;28;19924;-72
2021/09/29 17:03:58;;;;;;;;;;;;;;;;;;5091429;28;19924;-74
2021/09/29 17:06:25;;;;;;;;;;;;;;;;;;5089194;28;19924;-72
2021/09/29 17:08:52;;;;;;;;;;;;;;;;;;5089121;28;20230;-73
2021/09/29 17:11:18;;;;;;;;;;;;;;;;;;5094774;28;19924;-72
2021/09/29 17:13:46;;;;;;;;;;;;;;;;;;5089849;28;19930;-73
2021/09/29 17:16:14;;;;;;;;;;;;;;;;;;5089338;28;19951;-72
2021/09/29 17:18:42;;;;;;;;;;;;;;;;;;5088457;28;19932;-72
2021/09/29 17:21:09;;;;;;;;;;;;;;;;;;5091633;28;19924;-72
2021/09/29 17:23:36;;;;;;;;;;;;;;;;;;5091503;28;19931;-72
2021/09/29 17:26:03;;;;;;;;;;;;;;;;;;5087818;28;19978;-73
2021/09/29 17:28:30;;;;;;;;;;;;;;;;;;5089878;28;20419;-72
2021/09/29 17:31:00;;;;;;;;;;;;;;;;;;5090139;28;20434;-73
2021/09/29 17:33:33;;;;;;;;;;;;;;;;;;5091998;28;20487;-72
2021/09/29 17:36:22;;;;;;;;;;;;;;;;;;5088811;28;19925;-71
2021/09/29 17:52:34;;;;;;;;;;;;;;;;;;5089743;28;20322;-73
2021/09/29 17:55:01;;;;;;;;;;;;;;;;;;5088635;28;19924;-71
2021/09/29 17:57:27;;;;;;;;;;;;;;;;;;5083856;28;20380;-73
2021/09/29 17:59:54;;;;;;;;;;;;;;;;;;5088536;28;19924;-74
2021/09/29 18:02:26;;;;;;;;;;;;;;;;;;5088809;28;19924;-73
2021/09/29 18:04:54;;;;;;;;;;;;;;;;;;5090155;28;19936;-73
2021/09/29 18:07:36;;;;;;;;;;;;;;;;;;5086194;28;20418;-72
2021/09/29 18:10:03;;;;;;;;;;;;;;;;;;5087183;28;20354;-73
2021/09/29 18:12:30;;;;;;;;;;;;;;;;;;5088575;28;19924;-73
2021/09/29 18:14:56;;;;;;;;;;;;;;;;;;5087579;28;20326;-70
2021/09/29 18:17:23;;;;;;;;;;;;;;;;;;5083221;28;19932;-72
2021/09/29 18:19:50;;;;;;;;;;;;;;;;;;5087892;28;19998;-71
2021/09/29 18:22:17;;;;;;;;;;;;;;;;;;5077911;28;20510;-72
2021/09/29 18:24:44;;;;;;;;;;;;;;;;;;5085277;28;20350;-71
2021/09/29 18:27:11;;;;;;;;;;;;;;;;;;5086098;28;19932;-72
2021/09/29 18:29:38;;;;;;;;;;;;;;;;;;5089231;28;19979;-71
2021/09/29 18:32:05;;;;;;;;;;;;;;;;;;5090489;28;20007;-71
2021/09/29 18:34:35;;;;;;;;;;;;;;;;;;5087766;28;19932;-71
2021/09/29 18:37:05;;;;;;;;;;;;;;;;;;5087787;28;19943;-72
2021/09/29 18:39:32;;;;;;;;;;;;;;;;;;5086726;28;19928;-71
2021/09/29 18:42:00;;;;;;;;;;;;;;;;;;5088872;28;19927;-70
2021/09/29 18:44:27;;;;;;;;;;;;;;;;;;5087398;28;19924;-71
2021/09/29 18:46:54;;;;;;;;;;;;;;;;;;5084946;28;19935;-70
2021/09/29 18:49:21;;;;;;;;;;;;;;;;;;5087714;28;19934;-71
2021/09/29 18:51:51;;;;;;;;;;;;;;;;;;5095543;28;20380;-72
2021/09/29 18:54:24;;;;;;;;;;;;;;;;;;5093869;28;19935;-74
2021/09/29 19:07:48;;;;;;;;;;;;;;;;;;5091191;28;19923;-70
2021/09/29 19:10:15;;;;;;;;;;;;;;;;;;5091358;28;20016;-70
2021/09/29 19:12:42;;;;;;;;;;;;;;;;;;5088954;28;19960;-70
2021/09/29 19:15:09;;;;;;;;;;;;;;;;;;5094944;28;19931;-72
2021/09/29 19:17:36;;;;;;;;;;;;;;;;;;5094083;28;20014;-71
2021/09/29 19:20:03;;;;;;;;;;;;;;;;;;5085986;28;20341;-69
2021/09/29 19:22:30;;;;;;;;;;;;;;;;;;5091362;28;19928;-70
2021/09/29 19:24:57;;;;;;;;;;;;;;;;;;5087607;28;19930;-72
2021/09/29 19:27:25;;;;;;;;;;;;;;;;;;5089623;28;20311;-71
2021/09/29 19:29:52;;;;;;;;;;;;;;;;;;5087954;28;19970;-70
2021/09/29 19:32:19;;;;;;;;;;;;;;;;;;5088968;28;19930;-70
2021/09/29 19:34:46;;;;;;;;;;;;;;;;;;5092793;28;19974;-71
2021/09/29 19:37:13;;;;;;;;;;;;;;;;;;5095183;28;20400;-70
2021/09/29 19:39:40;;;;;;;;;;;;;;;;;;5092433;28;19924;-70
2021/09/29 19:42:08;;;;;;;;;;;;;;;;;;5091705;28;19931;-71
2021/09/29 19:44:35;;;;;;;;;;;;;;;;;;5094597;28;19924;-73
2021/09/29 19:47:06;;;;;;;;;;;;;;;;;;5095554;28;19928;-72
2021/09/29 19:49:36;;;;;;;;;;;;;;;;;;5095241;28;19932;-71
2021/09/29 20:08:27;;;;;;;;;;;;;;;;;;5085188;28;20366;-72
2021/09/29 20:10:59;;;;;;;;;;;;;;;;;;5083500;28;19938;-71
2021/09/29 20:13:26;;;;;;;;;;;;;;;;;;5088036;28;20030;-72
2021/09/29 20:15:53;;;;;;;;;;;;;;;;;;5087550;28;19940;-72
2021/09/29 20:18:20;;;;;;;;;;;;;;;;;;5087488;28;19934;-75
2021/09/29 20:20:48;;;;;;;;;;;;;;;;;;5087779;28;19981;-74
2021/09/29 20:23:17;;;;;;;;;;;;;;;;;;5082502;28;19932;-72
2021/09/29 20:25:44;;;;;;;;;;;;;;;;;;5083851;28;20442;-73
2021/09/29 20:28:11;;;;;;;;;;;;;;;;;;5086572;28;19932;-73
2021/09/29 20:30:43;;;;;;;;;;;;;;;;;;5082486;28;19931;-72
2021/09/29 20:33:17;;;;;;;;;;;;;;;;;;5083051;28;19924;-72